sensor_id;sensor_type;location;lat;lon;timestamp;P1;durP1;ratioP1;P2;durP2;ratioP2
60588;SDS011;46421;48.610;9.334;2024-01-30T00:00:33;6.90;;;3.10;;
60588;SDS011;46421;48.610;9.334;2024-01-30T00:02:59;7.70;;;3.42;;
60588;SDS011;46421;48.610;9.334;2024-01-30T00:05:24;8.83;;;3.50;;
60588;SDS011;46421;48.610;9.334;2024-01-30T00:07:50;7.33;;;3.13;;
60588;SDS011;46421;48.610;9.334;2024-01-30T00:10:15;11.65;;;3.25;;
60588;SDS011;46421;48.610;9.334;2024-01-30T00:12:40;7.65;;;3.22;;
60588;SDS011;46421;48.610;9.334;2024-01-30T00:15:06;9.00;;;3.17;;
60588;SDS011;46421;48.610;9.334;2024-01-30T00:17:34;6.72;;;3.60;;
60588;SDS011;46421;48.610;9.334;2024-01-30T00:20:00;9.70;;;4.15;;
60588;SDS011;46421;48.610;9.334;2024-01-30T00:22:26;7.25;;;3.13;;
60588;SDS011;46421;48.610;9.334;2024-01-30T00:24:51;9.10;;;3.17;;
60588;SDS011;46421;48.610;9.334;2024-01-30T00:27:16;8.00;;;3.25;;
60588;SDS011;46421;48.610;9.334;2024-01-30T00:29:42;10.27;;;3.10;;
60588;SDS011;46421;48.610;9.334;2024-01-30T00:32:07;8.73;;;2.87;;
60588;SDS011;46421;48.610;9.334;2024-01-30T00:34:32;10.50;;;3.17;;
60588;SDS011;46421;48.610;9.334;2024-01-30T00:36:58;10.17;;;2.80;;
60588;SDS011;46421;48.610;9.334;2024-01-30T00:39:24;9.65;;;3.63;;
60588;SDS011;46421;48.610;9.334;2024-01-30T00:41:49;8.03;;;2.90;;
60588;SDS011;46421;48.610;9.334;2024-01-30T00:44:14;7.85;;;3.50;;
60588;SDS011;46421;48.610;9.334;2024-01-30T00:46:40;6.63;;;3.25;;
60588;SDS011;46421;48.610;9.334;2024-01-30T00:49:05;8.67;;;3.17;;
60588;SDS011;46421;48.610;9.334;2024-01-30T00:51:30;9.13;;;3.40;;
60588;SDS011;46421;48.610;9.334;2024-01-30T00:53:56;9.88;;;3.20;;
60588;SDS011;46421;48.610;9.334;2024-01-30T00:56:21;7.83;;;3.43;;
60588;SDS011;46421;48.610;9.334;2024-01-30T00:58:47;9.30;;;3.45;;
60588;SDS011;46421;48.610;9.334;2024-01-30T01:01:12;6.83;;;2.80;;
60588;SDS011;46421;48.610;9.334;2024-01-30T01:03:38;9.38;;;3.78;;
60588;SDS011;46421;48.610;9.334;2024-01-30T01:06:03;7.03;;;2.70;;
60588;SDS011;46421;48.610;9.334;2024-01-30T01:08:28;8.18;;;2.97;;
60588;SDS011;46421;48.610;9.334;2024-01-30T01:10:54;9.10;;;3.57;;
60588;SDS011;46421;48.610;9.334;2024-01-30T01:13:19;9.68;;;3.65;;
60588;SDS011;46421;48.610;9.334;2024-01-30T01:15:45;8.52;;;3.08;;
60588;SDS011;46421;48.610;9.334;2024-01-30T01:18:10;6.93;;;3.22;;
60588;SDS011;46421;48.610;9.334;2024-01-30T01:20:35;9.87;;;3.63;;
60588;SDS011;46421;48.610;9.334;2024-01-30T01:23:01;6.50;;;3.10;;
60588;SDS011;46421;48.610;9.334;2024-01-30T01:25:26;7.07;;;3.20;;
60588;SDS011;46421;48.610;9.334;2024-01-30T01:27:51;7.53;;;2.90;;
60588;SDS011;46421;48.610;9.334;2024-01-30T01:30:17;9.75;;;3.17;;
60588;SDS011;46421;48.610;9.334;2024-01-30T01:32:47;6.93;;;3.10;;
60588;SDS011;46421;48.610;9.334;2024-01-30T01:35:20;10.05;;;3.42;;
60588;SDS011;46421;48.610;9.334;2024-01-30T01:37:49;7.43;;;3.25;;
60588;SDS011;46421;48.610;9.334;2024-01-30T01:40:20;8.55;;;3.50;;
60588;SDS011;46421;48.610;9.334;2024-01-30T01:42:49;6.97;;;3.67;;
60588;SDS011;46421;48.610;9.334;2024-01-30T01:47:41;6.40;;;2.90;;
60588;SDS011;46421;48.610;9.334;2024-01-30T01:50:07;5.82;;;2.92;;
60588;SDS011;46421;48.610;9.334;2024-01-30T01:52:32;8.43;;;3.17;;
60588;SDS011;46421;48.610;9.334;2024-01-30T01:54:58;6.72;;;3.60;;
60588;SDS011;46421;48.610;9.334;2024-01-30T01:57:24;6.72;;;2.95;;
60588;SDS011;46421;48.610;9.334;2024-01-30T01:59:49;7.07;;;3.00;;
60588;SDS011;46421;48.610;9.334;2024-01-30T02:02:15;7.97;;;3.15;;
60588;SDS011;46421;48.610;9.334;2024-01-30T02:07:07;8.00;;;2.90;;
60588;SDS011;46421;48.610;9.334;2024-01-30T02:09:33;5.55;;;2.72;;
60588;SDS011;46421;48.610;9.334;2024-01-30T02:11:58;5.87;;;2.63;;
60588;SDS011;46421;48.610;9.334;2024-01-30T02:14:23;6.35;;;2.88;;
60588;SDS011;46421;48.610;9.334;2024-01-30T02:16:49;6.73;;;2.67;;
60588;SDS011;46421;48.610;9.334;2024-01-30T02:19:14;7.15;;;2.72;;
60588;SDS011;46421;48.610;9.334;2024-01-30T02:21:39;5.80;;;2.93;;
60588;SDS011;46421;48.610;9.334;2024-01-30T02:24:05;6.65;;;2.90;;
60588;SDS011;46421;48.610;9.334;2024-01-30T02:26:31;7.25;;;2.97;;
60588;SDS011;46421;48.610;9.334;2024-01-30T02:28:56;9.27;;;3.40;;
60588;SDS011;46421;48.610;9.334;2024-01-30T02:31:21;7.80;;;3.47;;
60588;SDS011;46421;48.610;9.334;2024-01-30T02:33:47;7.87;;;3.20;;
60588;SDS011;46421;48.610;9.334;2024-01-30T02:36:12;8.60;;;4.00;;
60588;SDS011;46421;48.610;9.334;2024-01-30T02:38:37;7.30;;;3.10;;
60588;SDS011;46421;48.610;9.334;2024-01-30T02:41:03;8.45;;;3.42;;
60588;SDS011;46421;48.610;9.334;2024-01-30T02:43:28;7.85;;;3.00;;
60588;SDS011;46421;48.610;9.334;2024-01-30T02:45:54;8.17;;;3.03;;
60588;SDS011;46421;48.610;9.334;2024-01-30T02:48:19;7.10;;;2.80;;
60588;SDS011;46421;48.610;9.334;2024-01-30T02:50:44;8.27;;;3.13;;
60588;SDS011;46421;48.610;9.334;2024-01-30T02:53:11;6.38;;;2.95;;
60588;SDS011;46421;48.610;9.334;2024-01-30T02:55:36;8.90;;;3.65;;
60588;SDS011;46421;48.610;9.334;2024-01-30T02:58:01;7.77;;;3.23;;
60588;SDS011;46421;48.610;9.334;2024-01-30T03:00:27;7.00;;;3.40;;
60588;SDS011;46421;48.610;9.334;2024-01-30T03:02:52;8.90;;;3.53;;
60588;SDS011;46421;48.610;9.334;2024-01-30T03:05:17;8.53;;;3.23;;
60588;SDS011;46421;48.610;9.334;2024-01-30T03:07:43;6.40;;;2.67;;
60588;SDS011;46421;48.610;9.334;2024-01-30T03:10:08;7.03;;;2.60;;
60588;SDS011;46421;48.610;9.334;2024-01-30T03:12:33;6.32;;;2.65;;
60588;SDS011;46421;48.610;9.334;2024-01-30T03:14:59;9.07;;;3.03;;
60588;SDS011;46421;48.610;9.334;2024-01-30T03:17:24;7.00;;;2.60;;
60588;SDS011;46421;48.610;9.334;2024-01-30T03:19:50;6.57;;;2.70;;
60588;SDS011;46421;48.610;9.334;2024-01-30T03:22:15;7.63;;;3.20;;
60588;SDS011;46421;48.610;9.334;2024-01-30T03:24:41;6.28;;;2.42;;
60588;SDS011;46421;48.610;9.334;2024-01-30T03:27:06;5.68;;;2.08;;
60588;SDS011;46421;48.610;9.334;2024-01-30T03:29:32;6.20;;;2.50;;
60588;SDS011;46421;48.610;9.334;2024-01-30T03:31:57;6.78;;;2.53;;
60588;SDS011;46421;48.610;9.334;2024-01-30T03:34:23;7.77;;;2.83;;
60588;SDS011;46421;48.610;9.334;2024-01-30T03:36:48;7.43;;;3.17;;
60588;SDS011;46421;48.610;9.334;2024-01-30T03:39:14;8.10;;;3.00;;
60588;SDS011;46421;48.610;9.334;2024-01-30T03:41:41;7.77;;;2.73;;
60588;SDS011;46421;48.610;9.334;2024-01-30T03:44:07;6.25;;;2.67;;
60588;SDS011;46421;48.610;9.334;2024-01-30T03:46:32;7.20;;;2.63;;
60588;SDS011;46421;48.610;9.334;2024-01-30T03:48:58;6.03;;;2.77;;
60588;SDS011;46421;48.610;9.334;2024-01-30T03:51:23;9.23;;;2.67;;
60588;SDS011;46421;48.610;9.334;2024-01-30T03:53:48;7.50;;;2.53;;
60588;SDS011;46421;48.610;9.334;2024-01-30T03:56:14;6.30;;;2.65;;
60588;SDS011;46421;48.610;9.334;2024-01-30T03:58:39;5.83;;;2.20;;
60588;SDS011;46421;48.610;9.334;2024-01-30T04:01:05;6.40;;;2.70;;
60588;SDS011;46421;48.610;9.334;2024-01-30T04:03:30;7.55;;;2.78;;
60588;SDS011;46421;48.610;9.334;2024-01-30T04:05:55;7.97;;;3.40;;
60588;SDS011;46421;48.610;9.334;2024-01-30T04:08:21;6.85;;;3.05;;
60588;SDS011;46421;48.610;9.334;2024-01-30T04:10:46;5.32;;;2.28;;
60588;SDS011;46421;48.610;9.334;2024-01-30T04:13:12;9.48;;;2.78;;
60588;SDS011;46421;48.610;9.334;2024-01-30T04:15:38;7.80;;;3.17;;
60588;SDS011;46421;48.610;9.334;2024-01-30T04:18:03;7.45;;;2.47;;
60588;SDS011;46421;48.610;9.334;2024-01-30T04:20:29;7.43;;;2.80;;
60588;SDS011;46421;48.610;9.334;2024-01-30T04:22:54;9.30;;;3.15;;
60588;SDS011;46421;48.610;9.334;2024-01-30T04:25:20;5.38;;;2.35;;
60588;SDS011;46421;48.610;9.334;2024-01-30T04:27:46;5.60;;;2.85;;
60588;SDS011;46421;48.610;9.334;2024-01-30T04:30:11;5.93;;;2.60;;
60588;SDS011;46421;48.610;9.334;2024-01-30T04:32:36;8.25;;;3.15;;
60588;SDS011;46421;48.610;9.334;2024-01-30T04:35:02;6.80;;;2.45;;
60588;SDS011;46421;48.610;9.334;2024-01-30T04:37:28;7.90;;;2.75;;
60588;SDS011;46421;48.610;9.334;2024-01-30T04:39:53;6.75;;;2.35;;
60588;SDS011;46421;48.610;9.334;2024-01-30T04:42:19;6.33;;;2.30;;
60588;SDS011;46421;48.610;9.334;2024-01-30T04:44:44;7.32;;;2.35;;
60588;SDS011;46421;48.610;9.334;2024-01-30T04:47:10;6.78;;;2.70;;
60588;SDS011;46421;48.610;9.334;2024-01-30T04:49:37;5.78;;;2.47;;
60588;SDS011;46421;48.610;9.334;2024-01-30T04:54:29;5.68;;;1.90;;
60588;SDS011;46421;48.610;9.334;2024-01-30T04:56:55;7.30;;;2.38;;
60588;SDS011;46421;48.610;9.334;2024-01-30T04:59:20;7.50;;;2.30;;
60588;SDS011;46421;48.610;9.334;2024-01-30T05:01:45;5.43;;;2.47;;
60588;SDS011;46421;48.610;9.334;2024-01-30T05:04:11;5.95;;;2.65;;
60588;SDS011;46421;48.610;9.334;2024-01-30T05:06:37;7.20;;;2.55;;
60588;SDS011;46421;48.610;9.334;2024-01-30T05:09:02;6.45;;;2.42;;
60588;SDS011;46421;48.610;9.334;2024-01-30T05:11:29;6.65;;;2.97;;
60588;SDS011;46421;48.610;9.334;2024-01-30T05:13:55;6.32;;;2.63;;
60588;SDS011;46421;48.610;9.334;2024-01-30T05:16:20;5.67;;;2.30;;
60588;SDS011;46421;48.610;9.334;2024-01-30T05:18:46;7.35;;;2.55;;
60588;SDS011;46421;48.610;9.334;2024-01-30T05:21:11;6.13;;;2.75;;
60588;SDS011;46421;48.610;9.334;2024-01-30T05:23:36;7.57;;;2.77;;
60588;SDS011;46421;48.610;9.334;2024-01-30T05:26:02;6.60;;;2.70;;
60588;SDS011;46421;48.610;9.334;2024-01-30T05:28:28;7.68;;;2.63;;
60588;SDS011;46421;48.610;9.334;2024-01-30T05:30:54;8.63;;;2.47;;
60588;SDS011;46421;48.610;9.334;2024-01-30T05:33:20;6.95;;;2.95;;
60588;SDS011;46421;48.610;9.334;2024-01-30T05:35:45;6.73;;;2.67;;
60588;SDS011;46421;48.610;9.334;2024-01-30T05:38:11;6.28;;;2.55;;
60588;SDS011;46421;48.610;9.334;2024-01-30T05:40:37;6.53;;;3.05;;
60588;SDS011;46421;48.610;9.334;2024-01-30T05:43:03;10.73;;;3.85;;
60588;SDS011;46421;48.610;9.334;2024-01-30T05:45:28;7.07;;;2.42;;
60588;SDS011;46421;48.610;9.334;2024-01-30T05:47:54;6.10;;;2.53;;
60588;SDS011;46421;48.610;9.334;2024-01-30T05:50:19;5.53;;;2.63;;
60588;SDS011;46421;48.610;9.334;2024-01-30T05:52:45;8.32;;;2.95;;
60588;SDS011;46421;48.610;9.334;2024-01-30T05:55:11;7.47;;;2.53;;
60588;SDS011;46421;48.610;9.334;2024-01-30T05:57:37;5.60;;;2.53;;
60588;SDS011;46421;48.610;9.334;2024-01-30T06:00:03;6.95;;;2.83;;
60588;SDS011;46421;48.610;9.334;2024-01-30T06:02:32;6.57;;;2.78;;
60588;SDS011;46421;48.610;9.334;2024-01-30T06:04:58;7.20;;;2.88;;
60588;SDS011;46421;48.610;9.334;2024-01-30T06:07:23;5.50;;;2.33;;
60588;SDS011;46421;48.610;9.334;2024-01-30T06:09:48;7.13;;;3.45;;
60588;SDS011;46421;48.610;9.334;2024-01-30T06:12:14;7.28;;;2.78;;
60588;SDS011;46421;48.610;9.334;2024-01-30T06:14:39;6.67;;;2.63;;
60588;SDS011;46421;48.610;9.334;2024-01-30T06:17:07;6.70;;;2.35;;
60588;SDS011;46421;48.610;9.334;2024-01-30T06:19:32;8.65;;;3.53;;
60588;SDS011;46421;48.610;9.334;2024-01-30T06:21:58;7.67;;;3.07;;
60588;SDS011;46421;48.610;9.334;2024-01-30T06:24:23;6.25;;;2.22;;
60588;SDS011;46421;48.610;9.334;2024-01-30T06:26:48;5.23;;;2.07;;
60588;SDS011;46421;48.610;9.334;2024-01-30T06:29:14;4.40;;;2.43;;
60588;SDS011;46421;48.610;9.334;2024-01-30T06:31:42;7.88;;;2.55;;
60588;SDS011;46421;48.610;9.334;2024-01-30T06:34:11;7.93;;;3.03;;
60588;SDS011;46421;48.610;9.334;2024-01-30T06:36:37;4.55;;;2.40;;
60588;SDS011;46421;48.610;9.334;2024-01-30T06:39:02;6.40;;;2.58;;
60588;SDS011;46421;48.610;9.334;2024-01-30T06:41:28;6.95;;;2.20;;
60588;SDS011;46421;48.610;9.334;2024-01-30T06:43:53;5.75;;;2.70;;
60588;SDS011;46421;48.610;9.334;2024-01-30T06:46:19;7.85;;;3.28;;
60588;SDS011;46421;48.610;9.334;2024-01-30T06:48:44;10.63;;;2.40;;
60588;SDS011;46421;48.610;9.334;2024-01-30T06:51:10;6.87;;;2.70;;
60588;SDS011;46421;48.610;9.334;2024-01-30T06:53:36;6.20;;;2.33;;
60588;SDS011;46421;48.610;9.334;2024-01-30T06:56:01;6.18;;;2.40;;
60588;SDS011;46421;48.610;9.334;2024-01-30T06:58:27;6.47;;;2.55;;
60588;SDS011;46421;48.610;9.334;2024-01-30T07:00:52;7.57;;;2.40;;
60588;SDS011;46421;48.610;9.334;2024-01-30T07:03:19;7.00;;;2.42;;
60588;SDS011;46421;48.610;9.334;2024-01-30T07:05:44;4.60;;;2.07;;
60588;SDS011;46421;48.610;9.334;2024-01-30T07:08:09;5.73;;;2.27;;
60588;SDS011;46421;48.610;9.334;2024-01-30T07:10:35;7.07;;;2.30;;
60588;SDS011;46421;48.610;9.334;2024-01-30T07:13:00;5.83;;;2.33;;
60588;SDS011;46421;48.610;9.334;2024-01-30T07:15:26;7.18;;;2.63;;
60588;SDS011;46421;48.610;9.334;2024-01-30T07:17:51;6.10;;;2.50;;
60588;SDS011;46421;48.610;9.334;2024-01-30T07:20:16;7.07;;;2.63;;
60588;SDS011;46421;48.610;9.334;2024-01-30T07:22:44;6.00;;;2.25;;
60588;SDS011;46421;48.610;9.334;2024-01-30T07:25:10;5.47;;;2.45;;
60588;SDS011;46421;48.610;9.334;2024-01-30T07:27:35;5.80;;;2.30;;
60588;SDS011;46421;48.610;9.334;2024-01-30T07:30:01;6.97;;;2.60;;
60588;SDS011;46421;48.610;9.334;2024-01-30T07:32:28;5.63;;;2.30;;
60588;SDS011;46421;48.610;9.334;2024-01-30T07:34:53;5.73;;;2.50;;
60588;SDS011;46421;48.610;9.334;2024-01-30T07:37:19;9.33;;;2.90;;
60588;SDS011;46421;48.610;9.334;2024-01-30T07:39:44;7.57;;;2.67;;
60588;SDS011;46421;48.610;9.334;2024-01-30T07:42:10;7.83;;;2.60;;
60588;SDS011;46421;48.610;9.334;2024-01-30T07:44:35;5.50;;;2.45;;
60588;SDS011;46421;48.610;9.334;2024-01-30T07:47:01;9.45;;;2.83;;
60588;SDS011;46421;48.610;9.334;2024-01-30T07:49:27;5.38;;;2.42;;
60588;SDS011;46421;48.610;9.334;2024-01-30T07:51:53;5.93;;;2.73;;
60588;SDS011;46421;48.610;9.334;2024-01-30T07:54:18;6.17;;;2.50;;
60588;SDS011;46421;48.610;9.334;2024-01-30T07:56:43;7.13;;;2.40;;
60588;SDS011;46421;48.610;9.334;2024-01-30T07:59:09;7.07;;;2.73;;
60588;SDS011;46421;48.610;9.334;2024-01-30T08:01:36;7.85;;;2.80;;
60588;SDS011;46421;48.610;9.334;2024-01-30T08:04:01;6.37;;;2.67;;
60588;SDS011;46421;48.610;9.334;2024-01-30T08:06:27;7.77;;;2.90;;
60588;SDS011;46421;48.610;9.334;2024-01-30T08:08:52;7.00;;;2.67;;
60588;SDS011;46421;48.610;9.334;2024-01-30T08:11:19;8.57;;;2.97;;
60588;SDS011;46421;48.610;9.334;2024-01-30T08:13:45;6.05;;;2.50;;
60588;SDS011;46421;48.610;9.334;2024-01-30T08:16:11;5.95;;;2.47;;
60588;SDS011;46421;48.610;9.334;2024-01-30T08:18:36;8.10;;;2.77;;
60588;SDS011;46421;48.610;9.334;2024-01-30T08:21:01;6.82;;;2.60;;
60588;SDS011;46421;48.610;9.334;2024-01-30T08:23:27;7.05;;;2.72;;
60588;SDS011;46421;48.610;9.334;2024-01-30T08:25:52;6.57;;;2.83;;
60588;SDS011;46421;48.610;9.334;2024-01-30T08:28:17;6.40;;;2.60;;
60588;SDS011;46421;48.610;9.334;2024-01-30T08:30:43;7.38;;;3.38;;
60588;SDS011;46421;48.610;9.334;2024-01-30T08:33:08;8.20;;;3.25;;
60588;SDS011;46421;48.610;9.334;2024-01-30T08:35:33;7.27;;;3.17;;
60588;SDS011;46421;48.610;9.334;2024-01-30T08:37:59;10.07;;;3.80;;
60588;SDS011;46421;48.610;9.334;2024-01-30T08:40:25;6.20;;;3.13;;
60588;SDS011;46421;48.610;9.334;2024-01-30T08:42:50;7.05;;;3.22;;
60588;SDS011;46421;48.610;9.334;2024-01-30T08:45:15;7.17;;;3.13;;
60588;SDS011;46421;48.610;9.334;2024-01-30T08:47:41;8.25;;;3.50;;
60588;SDS011;46421;48.610;9.334;2024-01-30T08:50:06;7.72;;;4.10;;
60588;SDS011;46421;48.610;9.334;2024-01-30T08:52:32;9.13;;;4.00;;
60588;SDS011;46421;48.610;9.334;2024-01-30T08:54:59;8.85;;;4.25;;
60588;SDS011;46421;48.610;9.334;2024-01-30T08:57:24;9.27;;;4.43;;
60588;SDS011;46421;48.610;9.334;2024-01-30T08:59:53;9.68;;;4.93;;
60588;SDS011;46421;48.610;9.334;2024-01-30T09:02:18;9.45;;;4.45;;
60588;SDS011;46421;48.610;9.334;2024-01-30T09:04:44;7.25;;;3.83;;
60588;SDS011;46421;48.610;9.334;2024-01-30T09:07:09;8.60;;;4.70;;
60588;SDS011;46421;48.610;9.334;2024-01-30T09:09:35;9.13;;;4.40;;
60588;SDS011;46421;48.610;9.334;2024-01-30T09:12:00;7.45;;;4.03;;
60588;SDS011;46421;48.610;9.334;2024-01-30T09:14:31;8.30;;;4.07;;
60588;SDS011;46421;48.610;9.334;2024-01-30T09:16:57;10.60;;;4.82;;
60588;SDS011;46421;48.610;9.334;2024-01-30T09:19:22;7.85;;;4.28;;
60588;SDS011;46421;48.610;9.334;2024-01-30T09:21:48;8.02;;;4.10;;
60588;SDS011;46421;48.610;9.334;2024-01-30T09:24:13;8.38;;;4.43;;
60588;SDS011;46421;48.610;9.334;2024-01-30T09:26:38;10.30;;;4.88;;
60588;SDS011;46421;48.610;9.334;2024-01-30T09:29:04;10.95;;;4.50;;
60588;SDS011;46421;48.610;9.334;2024-01-30T09:31:29;10.80;;;5.18;;
60588;SDS011;46421;48.610;9.334;2024-01-30T09:33:55;8.60;;;4.22;;
60588;SDS011;46421;48.610;9.334;2024-01-30T09:36:20;12.13;;;4.80;;
60588;SDS011;46421;48.610;9.334;2024-01-30T09:38:46;8.18;;;4.25;;
60588;SDS011;46421;48.610;9.334;2024-01-30T09:41:11;10.55;;;4.97;;
60588;SDS011;46421;48.610;9.334;2024-01-30T09:43:38;10.98;;;4.68;;
60588;SDS011;46421;48.610;9.334;2024-01-30T09:46:04;8.68;;;4.25;;
60588;SDS011;46421;48.610;9.334;2024-01-30T09:48:30;12.35;;;4.97;;
60588;SDS011;46421;48.610;9.334;2024-01-30T09:50:57;9.38;;;4.82;;
60588;SDS011;46421;48.610;9.334;2024-01-30T09:53:22;10.35;;;5.00;;
60588;SDS011;46421;48.610;9.334;2024-01-30T09:55:48;10.57;;;5.35;;
60588;SDS011;46421;48.610;9.334;2024-01-30T09:58:16;11.10;;;4.82;;
60588;SDS011;46421;48.610;9.334;2024-01-30T10:00:41;13.05;;;4.75;;
60588;SDS011;46421;48.610;9.334;2024-01-30T10:03:06;10.52;;;4.90;;
60588;SDS011;46421;48.610;9.334;2024-01-30T10:05:32;11.00;;;4.90;;
60588;SDS011;46421;48.610;9.334;2024-01-30T10:08:05;10.90;;;4.88;;
60588;SDS011;46421;48.610;9.334;2024-01-30T10:10:31;10.23;;;5.47;;
60588;SDS011;46421;48.610;9.334;2024-01-30T10:12:56;16.52;;;5.78;;
60588;SDS011;46421;48.610;9.334;2024-01-30T10:15:21;10.15;;;5.82;;
60588;SDS011;46421;48.610;9.334;2024-01-30T10:17:47;10.32;;;4.93;;
60588;SDS011;46421;48.610;9.334;2024-01-30T10:20:12;9.70;;;5.00;;
60588;SDS011;46421;48.610;9.334;2024-01-30T10:22:39;11.88;;;5.88;;
60588;SDS011;46421;48.610;9.334;2024-01-30T10:25:05;11.73;;;6.28;;
60588;SDS011;46421;48.610;9.334;2024-01-30T10:27:31;11.48;;;5.30;;
60588;SDS011;46421;48.610;9.334;2024-01-30T10:29:57;11.82;;;5.30;;
60588;SDS011;46421;48.610;9.334;2024-01-30T10:32:23;10.75;;;5.10;;
60588;SDS011;46421;48.610;9.334;2024-01-30T10:34:48;9.40;;;4.80;;
60588;SDS011;46421;48.610;9.334;2024-01-30T10:37:14;8.95;;;4.80;;
60588;SDS011;46421;48.610;9.334;2024-01-30T10:39:42;8.98;;;4.40;;
60588;SDS011;46421;48.610;9.334;2024-01-30T10:42:11;9.60;;;5.05;;
60588;SDS011;46421;48.610;9.334;2024-01-30T10:47:24;12.00;;;4.85;;
60588;SDS011;46421;48.610;9.334;2024-01-30T10:49:51;9.38;;;4.93;;
60588;SDS011;46421;48.610;9.334;2024-01-30T10:52:17;8.82;;;4.40;;
60588;SDS011;46421;48.610;9.334;2024-01-30T10:54:43;13.10;;;5.20;;
60588;SDS011;46421;48.610;9.334;2024-01-30T10:57:09;10.57;;;5.43;;
60588;SDS011;46421;48.610;9.334;2024-01-30T10:59:35;12.05;;;5.43;;
60588;SDS011;46421;48.610;9.334;2024-01-30T11:02:01;10.05;;;5.00;;
60588;SDS011;46421;48.610;9.334;2024-01-30T11:04:27;12.95;;;5.28;;
60588;SDS011;46421;48.610;9.334;2024-01-30T11:06:52;11.18;;;5.22;;
60588;SDS011;46421;48.610;9.334;2024-01-30T11:09:19;10.45;;;4.97;;
60588;SDS011;46421;48.610;9.334;2024-01-30T11:11:57;11.82;;;5.93;;
60588;SDS011;46421;48.610;9.334;2024-01-30T11:14:27;9.98;;;5.10;;
60588;SDS011;46421;48.610;9.334;2024-01-30T11:16:57;9.40;;;4.47;;
60588;SDS011;46421;48.610;9.334;2024-01-30T11:19:27;11.13;;;5.28;;
60588;SDS011;46421;48.610;9.334;2024-01-30T11:21:53;11.65;;;5.70;;
60588;SDS011;46421;48.610;9.334;2024-01-30T11:24:22;12.38;;;5.63;;
60588;SDS011;46421;48.610;9.334;2024-01-30T11:26:58;13.07;;;5.38;;
60588;SDS011;46421;48.610;9.334;2024-01-30T11:29:24;11.90;;;5.60;;
60588;SDS011;46421;48.610;9.334;2024-01-30T11:31:53;11.13;;;5.32;;
60588;SDS011;46421;48.610;9.334;2024-01-30T11:34:20;11.45;;;5.78;;
60588;SDS011;46421;48.610;9.334;2024-01-30T11:36:48;13.05;;;5.80;;
60588;SDS011;46421;48.610;9.334;2024-01-30T11:39:27;11.73;;;6.25;;
60588;SDS011;46421;48.610;9.334;2024-01-30T11:44:19;13.53;;;6.43;;
60588;SDS011;46421;48.610;9.334;2024-01-30T11:46:46;13.95;;;5.75;;
60588;SDS011;46421;48.610;9.334;2024-01-30T11:49:15;11.07;;;5.40;;
60588;SDS011;46421;48.610;9.334;2024-01-30T11:51:41;11.38;;;5.25;;
60588;SDS011;46421;48.610;9.334;2024-01-30T11:54:07;9.93;;;4.93;;
60588;SDS011;46421;48.610;9.334;2024-01-30T11:56:32;12.05;;;4.68;;
60588;SDS011;46421;48.610;9.334;2024-01-30T11:58:58;10.15;;;5.80;;
60588;SDS011;46421;48.610;9.334;2024-01-30T12:01:25;14.10;;;6.45;;
60588;SDS011;46421;48.610;9.334;2024-01-30T12:03:51;16.05;;;6.40;;
60588;SDS011;46421;48.610;9.334;2024-01-30T12:06:17;15.43;;;6.57;;
60588;SDS011;46421;48.610;9.334;2024-01-30T12:08:42;11.73;;;5.25;;
60588;SDS011;46421;48.610;9.334;2024-01-30T12:11:08;11.48;;;5.80;;
60588;SDS011;46421;48.610;9.334;2024-01-30T12:13:33;10.98;;;5.35;;
60588;SDS011;46421;48.610;9.334;2024-01-30T12:15:59;13.93;;;4.90;;
60588;SDS011;46421;48.610;9.334;2024-01-30T12:18:25;11.02;;;4.97;;
60588;SDS011;46421;48.610;9.334;2024-01-30T12:21:00;10.43;;;4.88;;
60588;SDS011;46421;48.610;9.334;2024-01-30T12:23:29;9.55;;;4.80;;
60588;SDS011;46421;48.610;9.334;2024-01-30T12:25:54;12.00;;;5.13;;
60588;SDS011;46421;48.610;9.334;2024-01-30T12:28:20;10.98;;;4.70;;
60588;SDS011;46421;48.610;9.334;2024-01-30T12:30:45;12.77;;;5.60;;
60588;SDS011;46421;48.610;9.334;2024-01-30T12:33:16;9.68;;;4.93;;
60588;SDS011;46421;48.610;9.334;2024-01-30T12:35:47;10.45;;;4.68;;
60588;SDS011;46421;48.610;9.334;2024-01-30T12:38:13;13.20;;;4.78;;
60588;SDS011;46421;48.610;9.334;2024-01-30T12:40:39;12.73;;;5.55;;
60588;SDS011;46421;48.610;9.334;2024-01-30T12:43:04;9.15;;;4.65;;
60588;SDS011;46421;48.610;9.334;2024-01-30T12:45:29;9.25;;;5.05;;
60588;SDS011;46421;48.610;9.334;2024-01-30T12:47:55;10.32;;;4.60;;
60588;SDS011;46421;48.610;9.334;2024-01-30T12:50:20;10.20;;;4.80;;
60588;SDS011;46421;48.610;9.334;2024-01-30T12:52:46;9.50;;;4.93;;
60588;SDS011;46421;48.610;9.334;2024-01-30T12:55:11;10.15;;;4.80;;
60588;SDS011;46421;48.610;9.334;2024-01-30T12:57:37;10.63;;;5.13;;
60588;SDS011;46421;48.610;9.334;2024-01-30T13:00:04;14.52;;;6.32;;
60588;SDS011;46421;48.610;9.334;2024-01-30T13:02:33;10.13;;;5.50;;
60588;SDS011;46421;48.610;9.334;2024-01-30T13:05:01;11.60;;;5.55;;
60588;SDS011;46421;48.610;9.334;2024-01-30T13:07:27;12.82;;;4.88;;
60588;SDS011;46421;48.610;9.334;2024-01-30T13:09:53;13.13;;;5.25;;
60588;SDS011;46421;48.610;9.334;2024-01-30T13:12:18;12.30;;;4.53;;
60588;SDS011;46421;48.610;9.334;2024-01-30T13:14:43;11.07;;;4.75;;
60588;SDS011;46421;48.610;9.334;2024-01-30T13:17:09;9.90;;;4.72;;
60588;SDS011;46421;48.610;9.334;2024-01-30T13:19:34;11.65;;;4.47;;
60588;SDS011;46421;48.610;9.334;2024-01-30T13:21:59;13.10;;;4.53;;
60588;SDS011;46421;48.610;9.334;2024-01-30T13:24:25;8.45;;;4.40;;
60588;SDS011;46421;48.610;9.334;2024-01-30T13:26:50;9.60;;;4.60;;
60588;SDS011;46421;48.610;9.334;2024-01-30T13:29:15;8.75;;;3.85;;
60588;SDS011;46421;48.610;9.334;2024-01-30T13:31:41;11.18;;;3.88;;
60588;SDS011;46421;48.610;9.334;2024-01-30T13:34:06;9.77;;;4.68;;
60588;SDS011;46421;48.610;9.334;2024-01-30T13:36:32;8.88;;;3.90;;
60588;SDS011;46421;48.610;9.334;2024-01-30T13:38:57;7.32;;;3.92;;
60588;SDS011;46421;48.610;9.334;2024-01-30T13:41:23;6.68;;;3.47;;
60588;SDS011;46421;48.610;9.334;2024-01-30T13:43:48;7.25;;;3.15;;
60588;SDS011;46421;48.610;9.334;2024-01-30T13:46:14;7.28;;;2.38;;
60588;SDS011;46421;48.610;9.334;2024-01-30T13:48:39;6.22;;;2.10;;
60588;SDS011;46421;48.610;9.334;2024-01-30T13:51:04;4.50;;;2.28;;
60588;SDS011;46421;48.610;9.334;2024-01-30T13:53:30;6.20;;;2.58;;
60588;SDS011;46421;48.610;9.334;2024-01-30T13:55:56;5.05;;;2.33;;
60588;SDS011;46421;48.610;9.334;2024-01-30T13:58:21;5.53;;;2.38;;
60588;SDS011;46421;48.610;9.334;2024-01-30T14:00:46;7.20;;;2.33;;
60588;SDS011;46421;48.610;9.334;2024-01-30T14:03:12;4.30;;;2.00;;
60588;SDS011;46421;48.610;9.334;2024-01-30T14:05:37;5.80;;;2.08;;
60588;SDS011;46421;48.610;9.334;2024-01-30T14:08:02;6.60;;;2.20;;
60588;SDS011;46421;48.610;9.334;2024-01-30T14:10:28;6.38;;;1.98;;
60588;SDS011;46421;48.610;9.334;2024-01-30T14:12:53;5.35;;;1.80;;
60588;SDS011;46421;48.610;9.334;2024-01-30T14:15:19;5.75;;;1.73;;
60588;SDS011;46421;48.610;9.334;2024-01-30T14:17:45;5.65;;;1.88;;
60588;SDS011;46421;48.610;9.334;2024-01-30T14:20:10;4.70;;;1.95;;
60588;SDS011;46421;48.610;9.334;2024-01-30T14:22:36;4.38;;;1.63;;
60588;SDS011;46421;48.610;9.334;2024-01-30T14:25:02;5.07;;;1.90;;
60588;SDS011;46421;48.610;9.334;2024-01-30T14:27:30;8.32;;;3.17;;
60588;SDS011;46421;48.610;9.334;2024-01-30T14:29:56;7.63;;;3.63;;
60588;SDS011;46421;48.610;9.334;2024-01-30T14:32:22;9.00;;;3.70;;
60588;SDS011;46421;48.610;9.334;2024-01-30T14:34:48;7.10;;;2.83;;
60588;SDS011;46421;48.610;9.334;2024-01-30T14:37:14;5.22;;;2.10;;
60588;SDS011;46421;48.610;9.334;2024-01-30T14:39:39;5.80;;;2.00;;
60588;SDS011;46421;48.610;9.334;2024-01-30T14:42:06;4.95;;;1.98;;
60588;SDS011;46421;48.610;9.334;2024-01-30T14:44:31;4.55;;;1.58;;
60588;SDS011;46421;48.610;9.334;2024-01-30T14:46:57;5.38;;;1.83;;
60588;SDS011;46421;48.610;9.334;2024-01-30T14:49:22;5.05;;;2.13;;